createdAt,value
2022-10-19T00:00:42.555Z,10.99
2022-10-19T00:01:42.561Z,11.00
2022-10-19T00:02:42.526Z,11.00
2022-10-19T00:03:42.554Z,11.03
2022-10-19T00:04:42.517Z,11.00
2022-10-19T00:05:42.497Z,11.00
2022-10-19T00:06:42.498Z,11.06
2022-10-19T00:07:42.477Z,11.06
2022-10-19T00:08:42.469Z,11.04
2022-10-19T00:09:42.458Z,11.04
2022-10-19T00:10:42.449Z,11.02
2022-10-19T00:11:42.438Z,11.03
2022-10-19T00:12:42.479Z,10.97
2022-10-19T00:13:42.423Z,10.96
2022-10-19T00:14:42.406Z,10.99
2022-10-19T00:15:42.399Z,10.96
2022-10-19T00:16:42.390Z,10.94
2022-10-19T00:17:42.378Z,10.97
2022-10-19T00:18:42.362Z,10.99
2022-10-19T00:19:42.351Z,10.99
2022-10-19T00:20:42.341Z,10.97
2022-10-19T00:21:42.386Z,10.96
2022-10-19T00:22:42.319Z,10.89
2022-10-19T00:23:42.324Z,10.86
2022-10-19T00:24:42.293Z,10.86
2022-10-19T00:25:42.293Z,10.88
2022-10-19T00:26:42.376Z,10.94
2022-10-19T00:27:42.282Z,10.94
2022-10-19T00:28:42.310Z,10.94
2022-10-19T00:29:42.252Z,10.97
2022-10-19T00:30:42.298Z,11.00
2022-10-19T00:31:42.224Z,11.02
2022-10-19T00:32:42.215Z,11.04
2022-10-19T00:33:42.217Z,11.06
2022-10-19T00:34:42.196Z,11.09
2022-10-19T00:35:42.195Z,11.09
2022-10-19T00:36:42.185Z,11.10
2022-10-19T00:37:42.185Z,11.07
2022-10-19T00:38:42.155Z,11.00
2022-10-19T00:39:42.203Z,11.04
2022-10-19T00:40:42.136Z,11.09
2022-10-19T00:41:42.132Z,11.17
2022-10-19T00:42:42.116Z,11.22
2022-10-19T00:43:42.099Z,11.27
2022-10-19T00:44:42.087Z,11.32
2022-10-19T00:45:42.085Z,11.33
2022-10-19T00:46:42.078Z,11.35
2022-10-19T00:47:42.069Z,11.36
2022-10-19T00:48:42.085Z,11.39
2022-10-19T00:49:42.039Z,11.42
2022-10-19T00:50:42.021Z,11.42
2022-10-19T00:51:42.029Z,11.39
2022-10-19T00:52:42.000Z,11.36
2022-10-19T00:53:41.999Z,11.33
2022-10-19T00:54:41.987Z,11.32
2022-10-19T00:55:41.980Z,11.33
2022-10-19T00:56:41.967Z,11.28
2022-10-19T00:57:42.003Z,11.28
2022-10-19T00:58:41.941Z,11.19
2022-10-19T00:59:41.931Z,11.14
2022-10-19T01:00:41.945Z,11.07
2022-10-19T01:01:41.913Z,11.09
2022-10-19T01:02:41.902Z,11.06
2022-10-19T01:03:41.896Z,11.10
2022-10-19T01:04:41.877Z,11.09
2022-10-19T01:05:41.874Z,11.11
2022-10-19T01:06:41.892Z,11.18
2022-10-19T01:07:41.854Z,11.24
2022-10-19T01:08:41.836Z,11.25
2022-10-19T01:09:41.938Z,11.24
2022-10-19T01:10:41.815Z,11.21
2022-10-19T01:11:41.804Z,11.17
2022-10-19T01:12:41.788Z,11.17
2022-10-19T01:13:41.786Z,11.11
2022-10-19T01:14:41.767Z,11.11
2022-10-19T01:15:41.807Z,11.06
2022-10-19T01:16:41.746Z,11.04
2022-10-19T01:17:41.746Z,11.04
2022-10-19T01:18:41.728Z,10.99
2022-10-19T01:19:41.730Z,10.99
2022-10-19T01:20:41.708Z,11.00
2022-10-19T01:21:41.703Z,10.97
2022-10-19T01:22:41.688Z,10.92
2022-10-19T01:23:41.677Z,10.91
2022-10-19T01:24:41.722Z,10.92
2022-10-19T01:25:41.668Z,10.92
2022-10-19T01:26:41.649Z,10.92
2022-10-19T01:27:41.638Z,10.94
2022-10-19T01:28:41.668Z,10.89
2022-10-19T01:29:41.617Z,10.94
2022-10-19T01:30:41.608Z,10.89
2022-10-19T01:31:41.599Z,10.84
2022-10-19T01:32:41.590Z,10.84
2022-10-19T01:33:41.581Z,10.74
2022-10-19T01:34:41.566Z,10.73
2022-10-19T01:35:41.559Z,10.70
2022-10-19T01:36:41.543Z,10.70
2022-10-19T01:37:41.541Z,10.66
2022-10-19T01:38:41.520Z,10.67
2022-10-19T01:39:43.380Z,10.68
2022-10-19T01:40:41.502Z,10.67
2022-10-19T01:41:41.503Z,10.66
2022-10-19T01:42:41.512Z,10.64
2022-10-19T01:43:41.472Z,10.67
2022-10-19T01:44:41.462Z,10.79
2022-10-19T01:45:41.454Z,11.02
2022-10-19T01:46:41.435Z,11.15
2022-10-19T01:47:41.424Z,11.19
2022-10-19T01:48:41.405Z,11.15
2022-10-19T01:49:41.415Z,11.09
2022-10-19T01:50:41.395Z,11.07
2022-10-19T01:51:41.402Z,11.09
2022-10-19T01:52:41.375Z,11.15
2022-10-19T01:53:41.370Z,11.21
2022-10-19T01:54:41.347Z,11.22
2022-10-19T01:55:41.357Z,11.25
2022-10-19T01:56:41.330Z,11.24
2022-10-19T01:57:41.325Z,11.19
2022-10-19T01:58:41.307Z,11.18
2022-10-19T01:59:41.307Z,11.17
2022-10-19T02:00:41.333Z,11.14
2022-10-19T02:01:41.287Z,11.09
2022-10-19T02:02:41.267Z,11.03
2022-10-19T02:03:41.262Z,11.02
2022-10-19T02:04:41.239Z,10.99
2022-10-19T02:05:41.239Z,10.99
2022-10-19T02:06:41.238Z,11.06
2022-10-19T02:07:41.219Z,11.07
2022-10-19T02:08:41.200Z,11.11
2022-10-19T02:09:41.205Z,11.10
2022-10-19T02:10:41.182Z,11.15
2022-10-19T02:11:43.276Z,11.14
2022-10-19T02:12:42.190Z,11.10
2022-10-19T02:13:41.163Z,11.09
2022-10-19T02:14:41.140Z,11.09
2022-10-19T02:15:41.133Z,11.07
2022-10-19T02:16:41.114Z,11.06
2022-10-19T02:17:41.114Z,11.07
2022-10-19T02:18:41.104Z,11.07
2022-10-19T02:19:41.092Z,11.03
2022-10-19T02:20:41.083Z,11.04
2022-10-19T02:21:41.073Z,11.09
2022-10-19T02:22:41.054Z,11.14
2022-10-19T02:23:41.069Z,11.17
2022-10-19T02:24:41.035Z,11.17
2022-10-19T02:25:41.046Z,11.17
2022-10-19T02:26:41.013Z,11.18
2022-10-19T02:27:41.007Z,11.14
2022-10-19T02:28:40.997Z,11.18
2022-10-19T02:29:40.997Z,11.14
2022-10-19T02:30:40.967Z,11.17
2022-10-19T02:31:40.964Z,11.15
2022-10-19T02:32:40.947Z,11.09
2022-10-19T02:33:40.937Z,11.06
2022-10-19T02:34:41.015Z,11.02
2022-10-19T02:35:40.928Z,10.94
2022-10-19T02:36:40.908Z,10.94
2022-10-19T02:37:40.899Z,10.88
2022-10-19T02:38:40.886Z,10.84
2022-10-19T02:39:40.881Z,10.76
2022-10-19T02:40:40.869Z,10.73
2022-10-19T02:41:40.870Z,10.70
2022-10-19T02:42:40.852Z,10.68
2022-10-19T02:43:40.839Z,10.66
2022-10-19T02:44:40.826Z,10.63
2022-10-19T02:45:40.829Z,10.59
2022-10-19T02:47:40.802Z,10.55
2022-10-19T02:48:40.782Z,10.53
2022-10-19T02:49:40.772Z,10.51
2022-10-19T02:50:40.771Z,10.48
2022-10-19T02:51:40.752Z,10.44
2022-10-19T02:52:40.732Z,10.45
2022-10-19T02:53:40.743Z,10.51
2022-10-19T02:54:40.725Z,10.66
2022-10-19T02:56:40.699Z,10.68
2022-10-19T02:57:40.692Z,10.74
2022-10-19T02:58:40.674Z,10.74
2022-10-19T02:59:40.665Z,10.81
2022-10-19T03:00:40.734Z,10.79
2022-10-19T03:01:40.646Z,10.81
2022-10-19T03:02:40.635Z,10.79
2022-10-19T03:03:40.624Z,10.79
2022-10-19T03:04:40.635Z,10.76
2022-10-19T03:05:40.608Z,10.74
2022-10-19T03:06:40.595Z,10.76
2022-10-19T03:07:40.583Z,10.73
2022-10-19T03:08:40.574Z,10.70
2022-10-19T03:09:40.557Z,10.70
2022-10-19T03:10:40.546Z,10.74
2022-10-19T03:11:40.546Z,10.70
2022-10-19T03:12:40.535Z,10.71
2022-10-19T03:13:40.696Z,10.74
2022-10-19T03:14:40.615Z,10.71
2022-10-19T03:15:40.499Z,10.68
2022-10-19T03:16:40.486Z,10.67
2022-10-19T03:17:40.489Z,10.64
2022-10-19T03:18:40.478Z,10.64
2022-10-19T03:19:40.467Z,10.60
2022-10-19T03:20:40.440Z,10.59
2022-10-19T03:21:40.431Z,10.56
2022-10-19T03:22:40.479Z,10.55
2022-10-19T03:23:40.410Z,10.52
2022-10-19T03:24:40.409Z,10.51
2022-10-19T03:25:40.401Z,10.51
2022-10-19T03:26:40.371Z,10.52
2022-10-19T03:27:40.372Z,10.52
2022-10-19T03:28:40.396Z,10.51
2022-10-19T03:29:40.351Z,10.51
2022-10-19T03:30:40.338Z,10.52
2022-10-19T03:31:40.339Z,10.52
2022-10-19T03:32:40.314Z,10.52
2022-10-19T03:33:40.326Z,10.48
2022-10-19T03:34:40.307Z,10.51
2022-10-19T03:35:40.285Z,10.48
2022-10-19T03:36:40.264Z,10.44
2022-10-19T03:37:40.265Z,10.45
2022-10-19T03:38:40.246Z,10.42
2022-10-19T03:39:40.245Z,10.40
2022-10-19T03:40:40.246Z,10.38
2022-10-19T03:41:40.225Z,10.38
2022-10-19T03:42:40.202Z,10.41
2022-10-19T03:43:40.212Z,10.40
2022-10-19T03:44:40.213Z,10.40
2022-10-19T03:45:40.179Z,10.38
2022-10-19T03:46:40.182Z,10.34
2022-10-19T03:47:40.157Z,10.33
2022-10-19T03:48:40.199Z,10.30
2022-10-19T03:49:40.404Z,10.33
2022-10-19T03:50:40.118Z,10.27
2022-10-19T03:51:40.122Z,10.29
2022-10-19T03:52:40.107Z,10.30
2022-10-19T03:53:40.096Z,10.34
2022-10-19T03:54:40.080Z,10.33
2022-10-19T03:55:40.073Z,10.34
2022-10-19T03:56:40.050Z,10.34
2022-10-19T03:57:40.052Z,10.27
2022-10-19T03:58:40.037Z,10.26
2022-10-19T03:59:40.031Z,10.26
2022-10-19T04:00:40.059Z,10.26
2022-10-19T04:01:40.113Z,10.25
2022-10-19T04:02:40.000Z,10.27
2022-10-19T04:03:39.994Z,10.29
2022-10-19T04:04:39.972Z,10.30
2022-10-19T04:05:39.964Z,10.32
2022-10-19T04:06:39.956Z,10.32
2022-10-19T04:07:39.942Z,10.30
2022-10-19T04:08:39.922Z,10.36
2022-10-19T04:09:39.915Z,10.38
2022-10-19T04:10:39.912Z,10.38
2022-10-19T04:11:39.904Z,10.36
2022-10-19T04:12:39.887Z,10.34
2022-10-19T04:13:39.875Z,10.32
2022-10-19T04:14:56.432Z,10.34
2022-10-19T04:15:40.870Z,10.36
2022-10-19T04:16:39.836Z,10.40
2022-10-19T04:17:39.840Z,10.40
2022-10-19T04:18:39.823Z,10.34
2022-10-19T04:19:39.816Z,10.33
2022-10-19T04:20:39.797Z,10.30
2022-10-19T04:21:39.797Z,10.27
2022-10-19T04:22:39.780Z,10.30
2022-10-19T04:23:39.776Z,10.30
2022-10-19T04:24:39.749Z,10.33
2022-10-19T04:25:39.749Z,10.32
2022-10-19T04:26:39.752Z,10.34
2022-10-19T04:27:39.719Z,10.33
2022-10-19T04:28:39.793Z,10.34
2022-10-19T04:29:39.707Z,10.34
2022-10-19T04:30:39.699Z,10.33
2022-10-19T04:31:39.680Z,10.29
2022-10-19T04:32:39.680Z,10.32
2022-10-19T04:33:39.727Z,10.29
2022-10-19T04:34:40.202Z,10.30
2022-10-19T04:35:39.631Z,10.33
2022-10-19T04:36:39.639Z,10.41
2022-10-19T04:37:39.624Z,10.42
2022-10-19T04:38:39.612Z,10.45
2022-10-19T04:39:39.609Z,10.42
2022-10-19T04:40:39.588Z,10.42
2022-10-19T04:41:39.579Z,10.40
2022-10-19T04:42:39.573Z,10.36
2022-10-19T04:43:39.554Z,10.34
2022-10-19T04:44:39.544Z,10.33
2022-10-19T04:45:39.543Z,10.32
2022-10-19T04:46:39.533Z,10.38
2022-10-19T04:47:39.524Z,10.34
2022-10-19T04:48:39.504Z,10.33
2022-10-19T04:49:39.485Z,10.32
2022-10-19T04:50:39.485Z,10.29
2022-10-19T04:51:39.474Z,10.29
2022-10-19T04:52:39.470Z,10.30
2022-10-19T04:53:39.445Z,10.33
2022-10-19T04:54:39.443Z,10.38
2022-10-19T04:55:39.425Z,10.36
2022-10-19T04:56:39.425Z,10.41
2022-10-19T04:57:39.396Z,10.38
2022-10-19T04:58:39.414Z,10.36
2022-10-19T04:59:39.386Z,10.34
2022-10-19T05:00:39.390Z,10.30
2022-10-19T05:01:43.303Z,10.26
2022-10-19T05:02:40.358Z,10.22
2022-10-19T05:03:39.348Z,10.23
2022-10-19T05:04:41.830Z,10.25
2022-10-19T05:05:40.325Z,10.25
2022-10-19T05:06:39.309Z,10.18
2022-10-19T05:07:39.299Z,10.23
2022-10-19T05:08:39.288Z,10.25
2022-10-19T05:09:39.288Z,10.26
2022-10-19T05:10:41.227Z,10.20
2022-10-19T05:11:39.258Z,10.22
2022-10-19T05:12:39.250Z,10.18
2022-10-19T05:13:39.239Z,10.18
2022-10-19T05:14:42.642Z,10.15
2022-10-19T05:15:39.211Z,10.18
2022-10-19T05:16:39.205Z,10.17
2022-10-19T05:17:39.190Z,10.18
2022-10-19T05:18:39.180Z,10.17
2022-10-19T05:19:39.273Z,10.15
2022-10-19T05:20:39.161Z,10.12
2022-10-19T05:21:39.145Z,10.12
2022-10-19T05:22:39.144Z,10.12
2022-10-19T05:23:39.270Z,10.17
2022-10-19T05:24:39.126Z,10.18
2022-10-19T05:25:39.103Z,10.12
2022-10-19T05:26:39.095Z,10.08
2022-10-19T05:27:39.083Z,10.08
2022-10-19T05:28:39.222Z,10.05
2022-10-19T05:29:39.061Z,10.04
2022-10-19T05:30:39.058Z,10.04
2022-10-19T05:31:39.064Z,10.01
2022-10-19T05:32:39.036Z,10.02
2022-10-19T05:33:39.018Z,9.99
2022-10-19T05:34:39.026Z,9.94
2022-10-19T05:35:38.997Z,9.97
2022-10-19T05:36:38.994Z,9.99
2022-10-19T05:37:38.977Z,10.02
2022-10-19T05:38:38.966Z,10.01
2022-10-19T05:39:38.958Z,10.01
2022-10-19T05:40:38.958Z,9.99
2022-10-19T05:41:38.938Z,9.97
2022-10-19T05:42:38.926Z,10.01
2022-10-19T05:43:38.915Z,9.99
2022-10-19T05:45:38.900Z,9.93
2022-10-19T05:46:38.896Z,9.90
2022-10-19T05:47:38.866Z,9.86
2022-10-19T05:48:38.860Z,9.87
2022-10-19T05:49:38.849Z,9.86
2022-10-19T05:50:38.850Z,9.83
2022-10-19T05:51:38.852Z,9.83
2022-10-19T05:52:38.820Z,9.81
2022-10-19T05:54:38.804Z,9.83
2022-10-19T05:55:38.792Z,9.84
2022-10-19T05:56:38.780Z,9.83
2022-10-19T05:57:38.781Z,9.81
2022-10-19T05:58:38.751Z,9.83
2022-10-19T05:59:38.751Z,9.83
2022-10-19T06:00:38.733Z,9.78
2022-10-19T06:01:38.752Z,9.76
2022-10-19T06:02:38.723Z,9.76
2022-10-19T06:03:38.706Z,9.74
2022-10-19T06:04:38.691Z,9.74
2022-10-19T06:05:38.677Z,9.71
2022-10-19T06:06:38.696Z,9.74
2022-10-19T06:07:38.663Z,9.74
2022-10-19T06:08:38.665Z,9.72
2022-10-19T06:09:38.636Z,9.69
2022-10-19T06:10:38.627Z,9.71
2022-10-19T06:11:38.616Z,9.74
2022-10-19T06:12:38.614Z,9.74
2022-10-19T06:13:38.596Z,9.79
2022-10-19T06:14:38.645Z,9.83
2022-10-19T06:15:38.655Z,9.86
2022-10-19T06:16:38.566Z,9.84
2022-10-19T06:17:38.546Z,9.86
2022-10-19T06:18:38.551Z,9.87
2022-10-19T06:19:38.527Z,9.89
2022-10-19T06:20:38.528Z,9.86
2022-10-19T06:21:40.685Z,9.91
2022-10-19T06:22:38.498Z,9.93
2022-10-19T06:23:38.534Z,9.94
2022-10-19T06:24:38.480Z,9.97
2022-10-19T06:25:38.470Z,10.01
2022-10-19T06:26:38.467Z,10.01
2022-10-19T06:27:38.691Z,10.07
2022-10-19T06:28:38.438Z,10.11
2022-10-19T06:29:38.421Z,10.11
2022-10-19T06:30:38.461Z,10.12
2022-10-19T06:31:38.419Z,10.12
2022-10-19T06:32:38.390Z,10.12
2022-10-19T06:33:38.403Z,10.12
2022-10-19T06:34:38.372Z,10.14
2022-10-19T06:35:38.362Z,10.18
2022-10-19T06:36:38.355Z,10.22
2022-10-19T06:37:38.344Z,10.29
2022-10-19T06:38:38.323Z,10.33
2022-10-19T06:39:38.315Z,10.36
2022-10-19T06:40:38.305Z,10.41
2022-10-19T06:41:38.294Z,10.45
2022-10-19T06:42:38.283Z,10.52
2022-10-19T06:43:38.364Z,10.60
2022-10-19T06:44:38.275Z,10.64
2022-10-19T06:45:38.260Z,10.68
2022-10-19T06:46:38.245Z,10.74
2022-10-19T06:47:38.668Z,10.74
2022-10-19T06:48:38.225Z,10.79
2022-10-19T06:49:38.214Z,10.85
2022-10-19T06:50:38.203Z,10.92
2022-10-19T06:51:38.191Z,10.99
2022-10-19T06:52:38.186Z,11.03
2022-10-19T06:53:38.158Z,11.10
2022-10-19T06:54:38.166Z,11.18
2022-10-19T06:55:38.162Z,11.25
2022-10-19T06:56:38.165Z,11.33
2022-10-19T06:57:38.136Z,11.33
2022-10-19T06:58:38.117Z,11.40
2022-10-19T06:59:38.107Z,11.40
2022-10-19T07:00:38.167Z,11.44
2022-10-19T07:01:38.087Z,11.44
2022-10-19T07:02:38.089Z,11.47
2022-10-19T07:03:38.057Z,11.55
2022-10-19T07:04:38.134Z,11.57
2022-10-19T07:05:38.030Z,11.58
2022-10-19T07:06:38.030Z,11.64
2022-10-19T07:07:38.338Z,11.69
2022-10-19T07:08:38.009Z,11.73
2022-10-19T07:09:38.001Z,11.79
2022-10-19T07:10:37.989Z,11.86
2022-10-19T07:11:41.288Z,11.90
2022-10-19T07:12:38.973Z,11.96
2022-10-19T07:13:37.953Z,12.05
2022-10-19T07:14:37.942Z,12.10
2022-10-19T07:15:37.940Z,12.10
2022-10-19T07:16:37.932Z,12.09
2022-10-19T07:17:37.924Z,12.13
2022-10-19T07:18:37.903Z,12.13
2022-10-19T07:19:37.893Z,12.14
2022-10-19T07:20:37.893Z,12.16
2022-10-19T07:21:37.865Z,12.21
2022-10-19T07:22:37.870Z,12.23
2022-10-19T07:23:37.844Z,12.31
2022-10-19T07:24:37.842Z,12.34
2022-10-19T07:25:37.944Z,12.29
2022-10-19T07:26:37.823Z,12.28
2022-10-19T07:27:37.983Z,12.27
2022-10-19T07:28:37.798Z,12.27
2022-10-19T07:29:37.785Z,12.23
2022-10-19T07:30:37.783Z,12.24
2022-10-19T07:31:37.767Z,12.21
2022-10-19T07:32:37.775Z,12.21
2022-10-19T07:33:37.749Z,12.23
2022-10-19T07:34:37.738Z,12.41
2022-10-19T07:35:37.719Z,12.52
2022-10-19T07:36:37.717Z,12.59
2022-10-19T07:37:37.709Z,12.71
2022-10-19T07:38:37.700Z,12.70
2022-10-19T07:39:37.679Z,12.74
2022-10-19T07:40:37.670Z,12.82
2022-10-19T07:41:37.657Z,12.83
2022-10-19T07:42:37.660Z,12.87
2022-10-19T07:43:37.644Z,12.92
2022-10-19T07:44:37.637Z,12.90
2022-10-19T07:45:37.621Z,12.96
2022-10-19T07:46:37.611Z,13.07
2022-10-19T07:47:37.606Z,13.07
2022-10-19T07:48:37.605Z,13.10
2022-10-19T07:49:37.583Z,13.20
2022-10-19T07:50:37.564Z,13.32
2022-10-19T07:51:37.544Z,13.28
2022-10-19T07:52:37.572Z,13.17
2022-10-19T07:53:37.531Z,13.10
2022-10-19T07:54:37.524Z,13.08
2022-10-19T07:55:37.515Z,13.07
2022-10-19T07:56:37.506Z,13.15
2022-10-19T07:57:37.491Z,13.23
2022-10-19T07:58:37.485Z,13.42
2022-10-19T07:59:37.467Z,13.52
2022-10-19T08:00:37.474Z,13.62
2022-10-19T08:01:37.497Z,13.63
2022-10-19T08:02:54.654Z,13.64
2022-10-19T08:05:11.264Z,13.60
2022-10-19T08:05:38.407Z,13.54
2022-10-19T08:06:37.406Z,13.54
2022-10-19T08:07:37.396Z,13.44
2022-10-19T08:08:37.437Z,13.42
2022-10-19T08:09:54.199Z,13.36
2022-10-19T08:10:38.359Z,13.30
2022-10-19T08:11:37.358Z,13.38
2022-10-19T08:12:37.339Z,13.39
2022-10-19T08:13:37.317Z,13.39
2022-10-19T08:14:37.313Z,13.42
2022-10-19T08:15:37.300Z,13.45
2022-10-19T08:16:37.295Z,13.55
2022-10-19T08:17:37.281Z,13.63
2022-10-19T08:18:37.291Z,13.64
2022-10-19T08:19:37.253Z,13.59
2022-10-19T08:20:37.257Z,13.57
2022-10-19T08:21:37.232Z,13.66
2022-10-19T08:22:37.413Z,13.69
2022-10-19T08:23:37.232Z,13.84
2022-10-19T08:24:37.214Z,14.02
2022-10-19T08:25:37.193Z,14.18
2022-10-19T08:26:37.184Z,14.32
2022-10-19T08:27:37.175Z,14.36
2022-10-19T08:28:37.174Z,14.50
2022-10-19T08:29:37.261Z,14.51
2022-10-19T08:30:37.146Z,14.47
2022-10-19T08:31:37.127Z,14.51
2022-10-19T08:32:37.287Z,14.51
2022-10-19T08:33:37.120Z,14.40
2022-10-19T08:34:37.107Z,14.36
2022-10-19T08:35:37.096Z,14.39
2022-10-19T08:36:37.161Z,14.47
2022-10-19T08:37:44.668Z,14.62
2022-10-19T08:38:38.057Z,14.72
2022-10-19T08:39:37.048Z,14.72
2022-10-19T08:40:37.047Z,14.89
2022-10-19T08:41:37.116Z,14.99
2022-10-19T08:42:37.016Z,15.20
2022-10-19T08:43:37.018Z,15.29
2022-10-19T08:44:36.997Z,15.16
2022-10-19T08:45:37.023Z,15.02
2022-10-19T08:46:36.973Z,14.99
2022-10-19T08:47:37.294Z,14.96
2022-10-19T08:48:36.951Z,15.10
2022-10-19T08:49:37.044Z,15.27
2022-10-19T08:50:36.924Z,15.25
2022-10-19T08:51:36.925Z,15.16
2022-10-19T08:52:36.913Z,15.02
2022-10-19T08:53:36.904Z,14.99
2022-10-19T08:54:36.975Z,15.13
2022-10-19T08:55:36.892Z,15.21
2022-10-19T08:56:50.473Z,15.32
2022-10-19T08:57:37.864Z,15.41
2022-10-19T08:58:36.850Z,15.65
2022-10-19T08:59:36.841Z,15.67
2022-10-19T09:00:36.951Z,15.56
2022-10-19T09:01:37.771Z,15.31
2022-10-19T09:02:37.077Z,15.11
2022-10-19T09:03:57.367Z,14.89
2022-10-19T09:04:37.787Z,14.64
2022-10-19T09:05:36.778Z,14.58
2022-10-19T09:06:36.758Z,14.61
2022-10-19T09:07:36.773Z,14.72
2022-10-19T09:08:36.906Z,14.89
2022-10-19T09:09:36.807Z,14.94
2022-10-19T09:10:36.720Z,15.02
2022-10-19T09:11:36.708Z,15.10
2022-10-19T09:12:36.843Z,15.13
2022-10-19T09:13:41.763Z,15.17
2022-10-19T09:14:37.690Z,15.36
2022-10-19T09:15:36.671Z,15.53
2022-10-19T09:16:36.671Z,15.41
2022-10-19T09:17:36.652Z,15.44
2022-10-19T09:18:36.694Z,15.49
2022-10-19T09:19:36.630Z,15.47
2022-10-19T09:20:36.616Z,15.39
2022-10-19T09:21:45.970Z,15.29
2022-10-19T09:22:37.718Z,15.17
2022-10-19T09:23:36.590Z,15.06
2022-10-19T09:24:36.564Z,15.13
2022-10-19T09:25:36.564Z,15.27
2022-10-19T09:26:36.553Z,15.46
2022-10-19T09:27:36.555Z,15.69
2022-10-19T09:28:39.748Z,15.83
2022-10-19T09:29:36.524Z,15.69
2022-10-19T09:30:36.505Z,15.69
2022-10-19T09:31:40.346Z,15.78
2022-10-19T09:32:36.979Z,15.60
2022-10-19T09:33:36.489Z,15.59
2022-10-19T09:34:36.470Z,15.64
2022-10-19T09:35:36.458Z,15.60
2022-10-19T09:36:50.065Z,15.60
2022-10-19T09:37:37.449Z,15.67
2022-10-19T09:38:36.428Z,15.76
2022-10-19T09:39:36.427Z,15.76
2022-10-19T09:40:36.403Z,15.72
2022-10-19T09:41:36.398Z,15.69
2022-10-19T09:42:36.754Z,15.60
2022-10-19T09:43:36.372Z,15.59
2022-10-19T09:44:36.370Z,15.64
2022-10-19T09:45:36.361Z,15.75
2022-10-19T09:46:38.819Z,16.00
2022-10-19T09:47:36.754Z,16.08
2022-10-19T09:48:36.323Z,16.21
2022-10-19T09:49:36.313Z,16.23
2022-10-19T09:50:36.303Z,16.28
2022-10-19T09:51:36.291Z,16.38
2022-10-19T09:52:36.273Z,16.42
2022-10-19T09:53:36.274Z,16.33
2022-10-19T09:54:36.253Z,16.20
2022-10-19T09:55:36.290Z,16.07
2022-10-19T09:56:36.234Z,16.09
2022-10-19T09:57:36.474Z,16.17
2022-10-19T09:58:36.216Z,16.23
2022-10-19T09:59:36.217Z,16.24
2022-10-19T10:00:36.196Z,16.21
2022-10-19T10:01:41.666Z,16.30
2022-10-19T10:02:37.757Z,16.46
2022-10-19T10:03:36.177Z,16.71
2022-10-19T10:04:36.169Z,16.82
2022-10-19T10:05:36.182Z,17.00
2022-10-19T10:06:36.128Z,17.08
2022-10-19T10:07:36.547Z,17.26
2022-10-19T10:08:36.216Z,17.22
2022-10-19T10:09:36.111Z,17.08
2022-10-19T10:10:36.096Z,17.03
2022-10-19T10:11:36.090Z,17.15
2022-10-19T10:12:36.385Z,17.26
2022-10-19T10:13:36.059Z,17.41
2022-10-19T10:14:36.049Z,17.59
2022-10-19T10:15:36.040Z,17.56
2022-10-19T10:16:36.022Z,17.70
2022-10-19T10:17:36.032Z,17.72
2022-10-19T10:18:36.010Z,17.81
2022-10-19T10:19:35.993Z,17.92
2022-10-19T10:20:35.975Z,17.97
2022-10-19T10:21:35.978Z,17.89
2022-10-19T10:22:36.322Z,18.02
2022-10-19T10:23:35.961Z,18.21
2022-10-19T10:24:35.936Z,18.33
2022-10-19T10:25:35.927Z,18.55
2022-10-19T10:27:36.198Z,18.82
2022-10-19T10:28:35.896Z,18.90
2022-10-19T10:29:35.886Z,18.65
2022-10-19T10:30:35.878Z,18.48
2022-10-19T10:31:35.868Z,18.62
2022-10-19T10:32:36.240Z,18.82
2022-10-19T10:33:50.895Z,18.88
2022-10-19T10:34:46.353Z,19.14
2022-10-19T10:35:36.838Z,19.23
2022-10-19T10:36:35.822Z,19.47
2022-10-19T10:37:36.283Z,19.66
2022-10-19T10:38:35.798Z,19.37
2022-10-19T10:39:35.780Z,19.02
2022-10-19T10:40:35.772Z,18.82
2022-10-19T10:41:35.773Z,18.69
2022-10-19T10:42:36.170Z,18.65
2022-10-19T10:43:35.741Z,18.95
2022-10-19T10:44:35.730Z,19.19
2022-10-19T10:45:35.733Z,18.78
2022-10-19T10:46:35.707Z,18.50
2022-10-19T10:47:36.120Z,18.27
2022-10-19T10:48:35.684Z,18.42
2022-10-19T10:49:35.686Z,18.33
2022-10-19T10:50:35.669Z,18.35
2022-10-19T10:51:35.665Z,18.51
2022-10-19T10:52:36.085Z,18.65
2022-10-19T10:53:35.665Z,18.54
2022-10-19T10:54:35.626Z,18.47
2022-10-19T10:55:35.614Z,18.37
2022-10-19T10:56:35.600Z,18.65
2022-10-19T10:57:35.600Z,19.06
2022-10-19T10:58:35.582Z,19.13
2022-10-19T10:59:35.577Z,19.29
2022-10-19T11:00:35.565Z,19.33
2022-10-19T11:01:35.608Z,19.54
2022-10-19T11:02:35.541Z,19.62
2022-10-19T11:03:35.530Z,19.66
2022-10-19T11:04:35.540Z,19.86
2022-10-19T11:05:35.522Z,20.26
2022-10-19T11:06:36.892Z,20.47
2022-10-19T11:07:36.007Z,20.57
2022-10-19T11:08:35.529Z,20.87
2022-10-19T11:09:35.471Z,20.85
2022-10-19T11:10:35.456Z,20.67
2022-10-19T11:11:35.451Z,19.99
2022-10-19T11:12:35.434Z,19.71
2022-10-19T11:13:35.425Z,19.55
2022-10-19T11:14:35.407Z,19.43
2022-10-19T11:15:35.423Z,19.10
2022-10-19T11:16:35.398Z,18.84
2022-10-19T11:17:35.806Z,18.73
2022-10-19T11:18:35.388Z,18.44
2022-10-19T11:19:35.386Z,18.26
2022-10-19T11:20:35.357Z,18.57
2022-10-19T11:21:35.352Z,19.10
2022-10-19T11:22:35.626Z,19.51
2022-10-19T11:23:35.327Z,19.80
2022-10-19T11:24:35.320Z,20.23
2022-10-19T11:25:35.307Z,20.67
2022-10-19T11:26:35.319Z,20.91
2022-10-19T11:27:35.559Z,21.10
2022-10-19T11:28:35.262Z,21.13
2022-10-19T11:29:35.258Z,21.42
2022-10-19T11:30:38.889Z,21.43
2022-10-19T11:31:36.243Z,21.21
2022-10-19T11:32:35.614Z,20.76
2022-10-19T11:33:35.277Z,20.58
2022-10-19T11:34:35.204Z,20.26
2022-10-19T11:35:35.204Z,19.63
2022-10-19T11:36:35.202Z,19.29
2022-10-19T11:37:35.562Z,19.06
2022-10-19T11:38:35.165Z,18.90
2022-10-19T11:39:35.175Z,18.87
2022-10-19T11:40:35.144Z,18.92
2022-10-19T11:41:35.136Z,18.91
2022-10-19T11:42:35.191Z,18.98
2022-10-19T11:43:35.118Z,19.18
2022-10-19T11:44:35.135Z,19.32
2022-10-19T11:45:35.100Z,19.44
2022-10-19T11:46:35.071Z,19.54
2022-10-19T11:47:35.277Z,19.56
2022-10-19T11:48:35.058Z,19.59
2022-10-19T11:49:35.052Z,19.74
2022-10-19T11:50:35.039Z,19.51
2022-10-19T11:51:35.061Z,19.66
2022-10-19T11:52:35.375Z,20.20
2022-10-19T11:53:35.016Z,20.73
2022-10-19T11:54:35.002Z,21.04
2022-10-19T11:55:34.991Z,21.09
2022-10-19T11:56:51.211Z,21.53
2022-10-19T11:57:36.277Z,21.80
2022-10-19T11:58:35.347Z,22.20
2022-10-19T11:59:34.944Z,22.60
2022-10-19T12:00:39.321Z,22.95
2022-10-19T12:01:34.981Z,23.20
2022-10-19T12:02:35.177Z,23.10
2022-10-19T12:03:34.907Z,22.88
2022-10-19T12:04:34.913Z,22.54
2022-10-19T12:05:34.894Z,21.91
2022-10-19T12:06:34.877Z,21.65
2022-10-19T12:07:34.868Z,21.56
2022-10-19T12:08:34.865Z,22.03
2022-10-19T12:09:34.853Z,22.25
2022-10-19T12:10:34.829Z,22.43
2022-10-19T12:11:34.831Z,22.46
2022-10-19T12:12:35.105Z,22.88
2022-10-19T12:13:34.810Z,23.05
2022-10-19T12:14:34.789Z,23.12
2022-10-19T12:15:35.350Z,23.36
2022-10-19T12:16:34.774Z,23.48
2022-10-19T12:17:35.165Z,23.43
2022-10-19T12:18:34.754Z,23.55
2022-10-19T12:19:34.755Z,23.53
2022-10-19T12:20:34.754Z,23.51
2022-10-19T12:21:34.731Z,23.75
2022-10-19T12:22:34.741Z,23.43
2022-10-19T12:23:34.703Z,22.94
2022-10-19T12:24:34.694Z,22.94
2022-10-19T12:25:34.696Z,23.07
2022-10-19T12:26:34.675Z,23.04
2022-10-19T12:27:35.025Z,22.91
2022-10-19T12:28:34.647Z,22.47
2022-10-19T12:29:34.645Z,22.55
2022-10-19T12:30:34.629Z,22.54
2022-10-19T12:31:34.626Z,22.62
2022-10-19T12:32:34.619Z,22.58
2022-10-19T12:33:34.603Z,22.67
2022-10-19T12:34:34.592Z,22.80
2022-10-19T12:35:34.592Z,23.05
2022-10-19T12:36:34.562Z,23.31
2022-10-19T12:37:34.870Z,23.39
2022-10-19T12:38:34.553Z,23.36
2022-10-19T12:39:34.543Z,23.47
2022-10-19T12:40:34.612Z,23.54
2022-10-19T12:41:34.524Z,23.63
2022-10-19T12:42:34.512Z,23.47
2022-10-19T12:43:34.505Z,23.15
2022-10-19T12:44:34.488Z,23.01
2022-10-19T12:45:34.488Z,22.70
2022-10-19T12:46:34.466Z,22.45
2022-10-19T12:47:34.832Z,22.52
2022-10-19T12:48:34.447Z,22.55
2022-10-19T12:49:34.448Z,22.54
2022-10-19T12:50:37.727Z,22.15
2022-10-19T12:51:34.429Z,22.06
2022-10-19T12:52:34.640Z,21.96
2022-10-19T12:53:34.400Z,21.91
2022-10-19T12:54:34.389Z,21.91
2022-10-19T12:55:34.382Z,22.07
2022-10-19T12:56:34.470Z,22.39
2022-10-19T12:57:34.471Z,22.62
2022-10-19T12:58:34.351Z,22.49
2022-10-19T12:59:34.340Z,22.36
2022-10-19T13:00:34.411Z,22.36